createdAt,value
2023-02-13T00:01:23.044Z,19.80
2023-02-13T00:03:51.465Z,11.90
2023-02-13T00:06:19.851Z,14.60
2023-02-13T00:08:48.190Z,10.30
2023-02-13T00:11:17.261Z,13.20
2023-02-13T00:13:45.827Z,19.40
2023-02-13T00:16:14.198Z,19.90
2023-02-13T00:18:43.230Z,16.80
2023-02-13T00:21:15.241Z,10.80
2023-02-13T00:23:43.698Z,16.30
2023-02-13T00:26:14.349Z,13.50
2023-02-13T00:28:43.617Z,17.40
2023-02-13T00:31:13.787Z,21.90
2023-02-13T00:33:42.245Z,20.50
2023-02-13T00:36:13.543Z,15.10
2023-02-13T00:38:42.872Z,15.10
2023-02-13T00:41:11.876Z,15.00
2023-02-13T00:43:40.351Z,16.70
2023-02-13T00:46:08.784Z,12.10
2023-02-13T00:48:37.918Z,15.30
2023-02-13T00:51:07.122Z,16.30
2023-02-13T00:53:36.439Z,12.10
2023-02-13T00:56:06.799Z,12.90
2023-02-13T00:58:35.457Z,13.80
2023-02-13T01:01:04.063Z,15.80
2023-02-13T01:03:32.830Z,15.70
2023-02-13T01:06:01.377Z,10.70
2023-02-13T01:08:30.136Z,11.80
2023-02-13T01:10:59.105Z,15.50
2023-02-13T01:13:27.958Z,11.30
2023-02-13T01:15:56.448Z,15.40
2023-02-13T01:18:25.278Z,11.40
2023-02-13T01:20:59.585Z,14.20
2023-02-13T01:23:31.458Z,12.10
2023-02-13T01:26:00.259Z,15.50
2023-02-13T01:28:28.876Z,15.90
2023-02-13T01:30:58.758Z,17.10
2023-02-13T01:33:28.814Z,15.20
2023-02-13T01:35:57.858Z,12.80
2023-02-13T01:38:26.487Z,19.10
2023-02-13T01:40:55.751Z,16.50
2023-02-13T01:43:26.980Z,13.50
2023-02-13T01:45:56.929Z,18.50
2023-02-13T01:48:26.538Z,10.70
2023-02-13T01:50:58.035Z,13.20
2023-02-13T01:53:29.433Z,18.70
2023-02-13T01:56:00.043Z,11.60
2023-02-13T01:58:31.991Z,12.90
2023-02-13T02:01:00.802Z,15.20
2023-02-13T02:03:33.329Z,12.40
2023-02-13T02:06:03.580Z,16.30
2023-02-13T02:08:32.677Z,11.20
2023-02-13T02:11:07.617Z,13.10
2023-02-13T02:13:36.495Z,16.00
2023-02-13T02:16:05.375Z,14.60
2023-02-13T02:18:33.896Z,11.00
2023-02-13T02:21:50.102Z,15.70
2023-02-13T02:24:57.590Z,9.30
2023-02-13T02:27:49.275Z,13.60
2023-02-13T02:31:03.980Z,14.00
2023-02-13T02:33:38.817Z,10.00
2023-02-13T02:36:16.517Z,12.70
2023-02-13T02:38:57.475Z,12.30
2023-02-13T02:41:42.742Z,12.00
2023-02-13T02:44:32.362Z,10.80
2023-02-13T02:47:28.039Z,10.40
2023-02-13T02:50:05.304Z,9.10
2023-02-13T02:52:41.740Z,10.00
2023-02-13T02:55:21.180Z,10.50
2023-02-13T02:58:18.958Z,10.00
2023-02-13T03:01:08.080Z,13.10
2023-02-13T03:03:55.713Z,13.70
2023-02-13T03:06:27.471Z,11.20
2023-02-13T03:09:20.260Z,14.00
2023-02-13T03:12:10.791Z,10.90
2023-02-13T03:14:39.228Z,12.90
2023-02-13T03:17:33.254Z,9.60
2023-02-13T03:20:31.284Z,11.20
2023-02-13T03:23:15.958Z,14.10
2023-02-13T03:26:20.076Z,13.60
2023-02-13T03:29:14.562Z,10.40
2023-02-13T03:31:49.349Z,17.00
2023-02-13T03:34:20.779Z,10.30
2023-02-13T03:37:11.733Z,12.00
2023-02-13T03:39:47.616Z,9.50
2023-02-13T03:42:21.907Z,7.80
2023-02-13T03:45:09.341Z,11.10
2023-02-13T03:47:38.193Z,9.20
2023-02-13T03:50:10.153Z,13.80
2023-02-13T03:52:44.055Z,10.40
2023-02-13T03:55:32.853Z,11.60
2023-02-13T03:58:22.145Z,10.40
2023-02-13T04:00:52.316Z,12.60
2023-02-13T04:03:26.110Z,10.50
2023-02-13T04:05:58.238Z,11.50
2023-02-13T04:08:26.800Z,10.20
2023-02-13T04:11:00.011Z,8.90
2023-02-13T04:13:32.474Z,10.80
2023-02-13T04:16:04.746Z,10.70
2023-02-13T04:18:34.310Z,11.60
2023-02-13T04:21:06.221Z,10.60
2023-02-13T04:23:36.830Z,11.20
2023-02-13T04:26:08.969Z,11.90
2023-02-13T04:28:37.467Z,10.80
2023-02-13T04:31:06.431Z,9.90
2023-02-13T04:33:35.885Z,9.10
2023-02-13T04:36:05.275Z,12.80
2023-02-13T04:38:33.630Z,10.30
2023-02-13T04:41:02.154Z,9.10
2023-02-13T04:43:30.792Z,9.10
2023-02-13T04:45:59.579Z,9.70
2023-02-13T04:48:29.510Z,12.50
2023-02-13T04:50:58.077Z,9.80
2023-02-13T04:53:26.739Z,11.70
2023-02-13T04:55:55.455Z,10.00
2023-02-13T04:58:23.842Z,13.40
2023-02-13T05:00:52.246Z,11.50
2023-02-13T05:03:20.959Z,13.50
2023-02-13T05:05:50.075Z,11.70
2023-02-13T05:08:18.472Z,14.40
2023-02-13T05:10:49.381Z,9.60
2023-02-13T05:13:21.088Z,12.20
2023-02-13T05:15:52.198Z,13.10
2023-02-13T05:18:20.829Z,12.50
2023-02-13T05:21:09.459Z,10.30
2023-02-13T05:23:38.114Z,11.50
2023-02-13T05:26:06.638Z,12.80
2023-02-13T05:28:55.342Z,9.60
2023-02-13T05:31:24.091Z,11.70
2023-02-13T05:33:52.571Z,10.80
2023-02-13T05:36:20.984Z,12.70
2023-02-13T05:38:50.974Z,12.20
2023-02-13T05:41:19.359Z,13.20
2023-02-13T05:43:48.511Z,13.30
2023-02-13T05:46:17.056Z,12.70
2023-02-13T05:48:45.449Z,12.00
2023-02-13T05:51:14.092Z,12.40
2023-02-13T05:53:42.564Z,13.60
2023-02-13T05:56:10.992Z,13.90
2023-02-13T05:58:40.749Z,12.20
2023-02-13T06:01:09.624Z,10.40
2023-02-13T06:03:40.313Z,10.50
2023-02-13T06:06:09.736Z,11.40
2023-02-13T06:08:39.695Z,13.80
2023-02-13T06:11:08.981Z,13.60
2023-02-13T06:13:40.216Z,13.40
2023-02-13T06:16:09.309Z,15.00
2023-02-13T06:18:38.350Z,9.80
2023-02-13T06:21:07.269Z,11.70
2023-02-13T06:23:35.737Z,11.20
2023-02-13T06:26:06.003Z,9.80
2023-02-13T06:28:34.804Z,11.90
2023-02-13T06:31:03.839Z,13.50
2023-02-13T06:33:32.632Z,10.70
2023-02-13T06:36:01.550Z,10.10
2023-02-13T06:38:31.538Z,10.40
2023-02-13T06:41:01.890Z,9.10
2023-02-13T06:43:30.743Z,13.70
2023-02-13T06:46:00.773Z,9.40
2023-02-13T06:48:31.694Z,11.80
2023-02-13T06:51:01.427Z,10.90
2023-02-13T06:53:30.036Z,8.10
2023-02-13T06:55:58.586Z,10.20
2023-02-13T06:58:27.134Z,13.50
2023-02-13T07:00:56.348Z,12.90
2023-02-13T07:03:25.053Z,13.70
2023-02-13T07:05:54.789Z,12.50
2023-02-13T07:08:23.405Z,8.10
2023-02-13T07:10:52.290Z,9.80
2023-02-13T07:13:22.006Z,9.80
2023-02-13T07:15:50.775Z,9.50
2023-02-13T07:18:19.451Z,9.80
2023-02-13T07:20:48.055Z,9.50
2023-02-13T07:23:16.401Z,9.60
2023-02-13T07:25:45.265Z,10.40
2023-02-13T07:28:16.790Z,10.30
2023-02-13T07:30:46.679Z,8.80
2023-02-13T07:33:15.153Z,10.50
2023-02-13T07:35:47.805Z,7.70
2023-02-13T07:38:16.452Z,11.70
2023-02-13T07:40:46.022Z,8.10
2023-02-13T07:43:19.258Z,9.40
2023-02-13T07:45:47.756Z,7.90
2023-02-13T07:48:17.000Z,6.70
2023-02-13T07:50:45.682Z,6.60
2023-02-13T07:53:14.898Z,6.50
2023-02-13T07:55:45.686Z,8.40
2023-02-13T07:58:17.072Z,8.10
2023-02-13T08:00:47.947Z,9.20
2023-02-13T08:03:16.359Z,6.80
2023-02-13T08:05:49.395Z,6.90
2023-02-13T08:08:21.032Z,7.20
2023-02-13T08:11:08.172Z,6.70
2023-02-13T08:13:37.127Z,6.80
2023-02-13T08:16:06.423Z,6.70
2023-02-13T08:18:35.530Z,5.70
2023-02-13T08:21:04.370Z,6.90
2023-02-13T08:23:32.771Z,5.40
2023-02-13T08:26:02.717Z,6.00
2023-02-13T08:28:31.364Z,6.10
2023-02-13T08:31:00.115Z,7.20
2023-02-13T08:33:29.310Z,6.60
2023-02-13T08:35:58.369Z,7.30
2023-02-13T08:38:26.942Z,4.40
2023-02-13T08:40:58.144Z,7.60
2023-02-13T08:43:26.897Z,5.20
2023-02-13T08:46:01.071Z,7.60
2023-02-13T08:48:30.303Z,6.10
2023-02-13T08:50:59.476Z,6.00
2023-02-13T08:53:28.103Z,6.10
2023-02-13T08:55:58.047Z,6.30
2023-02-13T08:58:27.815Z,6.40
2023-02-13T09:01:00.499Z,4.60
2023-02-13T09:03:32.158Z,4.60
2023-02-13T09:06:02.212Z,4.40
2023-02-13T09:08:34.303Z,3.90
2023-02-13T09:11:05.123Z,4.70
2023-02-13T09:13:36.328Z,3.40
2023-02-13T09:16:06.491Z,5.00
2023-02-13T09:18:37.935Z,4.20
2023-02-13T09:21:08.846Z,3.90
2023-02-13T09:23:39.330Z,4.30
2023-02-13T09:26:09.276Z,5.20
2023-02-13T09:28:38.246Z,5.10
2023-02-13T09:31:07.662Z,4.10
2023-02-13T09:33:36.307Z,7.80
2023-02-13T09:36:10.165Z,4.50
2023-02-13T09:38:38.532Z,3.80
2023-02-13T09:41:09.973Z,3.90
2023-02-13T09:43:44.531Z,4.00
2023-02-13T09:46:15.634Z,4.30
2023-02-13T09:48:47.312Z,3.50
2023-02-13T09:51:18.316Z,3.00
2023-02-13T09:53:52.802Z,3.90
2023-02-13T09:56:30.138Z,5.40
2023-02-13T09:59:03.428Z,3.50
2023-02-13T10:01:35.225Z,3.70
2023-02-13T10:04:20.692Z,4.30
2023-02-13T10:06:53.990Z,3.90
2023-02-13T10:09:29.988Z,4.30
2023-02-13T10:12:13.820Z,3.90
2023-02-13T10:14:48.431Z,3.60
2023-02-13T10:17:22.428Z,4.70
2023-02-13T10:19:54.776Z,5.50
2023-02-13T10:22:27.906Z,4.30
2023-02-13T10:24:59.677Z,3.50
2023-02-13T10:27:32.661Z,3.30
2023-02-13T10:30:05.624Z,5.90
2023-02-13T10:32:44.134Z,3.60
2023-02-13T10:35:23.236Z,5.10
2023-02-13T10:37:56.148Z,3.50
2023-02-13T10:40:28.772Z,5.90
2023-02-13T10:43:03.551Z,5.90
2023-02-13T10:45:49.693Z,5.50
2023-02-13T10:48:29.060Z,3.40
2023-02-13T10:51:02.837Z,4.40
2023-02-13T10:56:14.750Z,5.00
2023-02-13T10:58:54.003Z,5.00
2023-02-13T11:01:30.666Z,3.40
2023-02-13T11:04:07.162Z,3.90
2023-02-13T11:06:42.059Z,5.10
2023-02-13T11:09:13.087Z,6.40
2023-02-13T11:11:44.452Z,7.10
2023-02-13T11:14:16.750Z,3.80
2023-02-13T11:16:53.559Z,5.30
2023-02-13T11:19:31.531Z,7.80
2023-02-13T11:22:06.268Z,6.30
2023-02-13T11:24:35.191Z,6.40
2023-02-13T11:27:08.497Z,4.40
2023-02-13T11:29:41.042Z,3.60
2023-02-13T11:32:20.501Z,4.20
2023-02-13T11:34:54.331Z,5.80
2023-02-13T11:37:27.587Z,6.00
2023-02-13T11:39:58.096Z,5.70
2023-02-13T11:42:29.799Z,7.30
2023-02-13T11:45:03.262Z,4.00
2023-02-13T11:47:42.520Z,5.90
2023-02-13T11:50:24.750Z,6.30
2023-02-13T11:53:07.235Z,4.20
2023-02-13T11:55:37.567Z,5.90
2023-02-13T11:58:24.906Z,5.80
2023-02-13T12:01:25.037Z,6.70
2023-02-13T12:04:05.057Z,6.80
2023-02-13T12:06:39.281Z,7.90
2023-02-13T12:09:16.560Z,7.00
2023-02-13T12:11:47.592Z,7.60
2023-02-13T12:14:21.731Z,8.20
2023-02-13T12:16:52.640Z,7.60
2023-02-13T12:19:26.636Z,8.20
2023-02-13T12:25:32.519Z,6.20
2023-02-13T12:28:11.480Z,6.80
2023-02-13T12:31:09.700Z,8.20
2023-02-13T12:33:55.771Z,6.50
2023-02-13T12:36:27.038Z,8.10
2023-02-13T12:39:12.712Z,9.60
2023-02-13T12:41:49.707Z,7.50
2023-02-13T12:44:34.887Z,7.20
2023-02-13T12:47:12.088Z,8.40
2023-02-13T12:50:04.870Z,8.70
2023-02-13T12:52:41.810Z,6.20
2023-02-13T12:55:23.082Z,5.50
2023-02-13T12:58:03.438Z,7.20
2023-02-13T13:00:44.437Z,6.60
2023-02-13T13:03:28.787Z,7.30
2023-02-13T13:12:20.952Z,6.60
2023-02-13T13:14:55.873Z,6.10
2023-02-13T13:17:35.879Z,6.00
2023-02-13T13:20:26.522Z,8.10
2023-02-13T13:22:57.974Z,7.20
2023-02-13T13:25:32.263Z,6.40
2023-02-13T13:28:06.549Z,7.40
2023-02-13T13:30:37.208Z,8.50
2023-02-13T13:33:09.873Z,6.80
2023-02-13T13:35:43.423Z,9.70
2023-02-13T13:38:17.053Z,5.50
2023-02-13T13:40:51.076Z,7.70
2023-02-13T13:45:57.076Z,7.90
2023-02-13T13:48:45.884Z,5.80
2023-02-13T13:51:18.883Z,6.50
2023-02-13T13:54:18.189Z,8.50
2023-02-13T13:57:08.056Z,9.00
2023-02-13T14:00:01.646Z,6.00
2023-02-13T14:02:42.307Z,9.80
2023-02-13T14:05:27.902Z,7.30
2023-02-13T14:07:58.166Z,5.60
2023-02-13T14:11:08.611Z,6.00
2023-02-13T14:13:39.532Z,5.10
2023-02-13T14:16:11.908Z,6.80
2023-02-13T14:18:46.789Z,6.00
2023-02-13T14:21:24.091Z,7.10
2023-02-13T14:23:53.155Z,6.60
2023-02-13T14:26:38.618Z,7.60
2023-02-13T14:29:31.475Z,5.30
2023-02-13T14:32:06.783Z,8.70
2023-02-13T14:34:39.527Z,7.30
2023-02-13T14:37:20.286Z,6.80
2023-02-13T14:40:27.869Z,7.00
2023-02-13T14:42:59.903Z,8.10
2023-02-13T14:45:32.326Z,4.70
2023-02-13T14:48:07.643Z,6.70
2023-02-13T14:50:47.294Z,5.30
2023-02-13T14:53:23.931Z,6.90
2023-02-13T14:55:58.052Z,6.90
2023-02-13T14:58:31.906Z,7.20
2023-02-13T15:01:04.966Z,6.10
2023-02-13T15:03:38.468Z,7.00
2023-02-13T15:06:14.478Z,5.80
2023-02-13T15:08:47.144Z,6.20
2023-02-13T15:11:36.038Z,7.70
2023-02-13T15:14:19.224Z,5.60
2023-02-13T15:16:50.561Z,4.40
2023-02-13T15:19:22.570Z,4.90
2023-02-13T15:21:55.742Z,6.10
2023-02-13T15:24:26.298Z,6.50
2023-02-13T15:27:00.377Z,5.30
2023-02-13T15:29:40.978Z,7.30
2023-02-13T15:32:21.553Z,4.70
2023-02-13T15:34:50.332Z,4.90
2023-02-13T15:37:23.532Z,8.30
2023-02-13T15:39:53.546Z,6.90
2023-02-13T15:42:22.303Z,6.80
2023-02-13T15:44:52.737Z,4.70
2023-02-13T15:47:26.541Z,5.80
2023-02-13T15:49:55.062Z,6.80
2023-02-13T15:52:29.720Z,6.70
2023-02-13T15:54:58.838Z,4.70
2023-02-13T15:57:28.105Z,5.30
2023-02-13T15:59:57.521Z,4.70
2023-02-13T16:02:30.958Z,3.90
2023-02-13T16:05:02.377Z,6.80
2023-02-13T16:07:30.809Z,4.10
2023-02-13T16:10:16.298Z,4.80
2023-02-13T16:12:47.278Z,4.80
2023-02-13T16:15:18.534Z,4.70
2023-02-13T16:17:47.842Z,3.80
2023-02-13T16:20:21.149Z,4.30
2023-02-13T16:22:51.723Z,4.30
2023-02-13T16:25:24.422Z,3.60
2023-02-13T16:27:54.812Z,6.30
2023-02-13T16:30:34.133Z,6.30
2023-02-13T16:33:22.698Z,4.00
2023-02-13T16:35:53.435Z,4.40
2023-02-13T16:38:30.115Z,3.30
2023-02-13T16:41:00.185Z,6.60
2023-02-13T16:43:37.743Z,4.20
2023-02-13T16:46:18.502Z,4.20
2023-02-13T16:48:48.535Z,3.90
2023-02-13T16:51:18.683Z,3.90
2023-02-13T16:53:47.101Z,4.10
2023-02-13T16:56:15.668Z,5.90
2023-02-13T16:58:44.154Z,4.90
2023-02-13T17:01:17.452Z,5.10
2023-02-13T17:03:45.831Z,3.90
2023-02-13T17:06:15.619Z,3.80
2023-02-13T17:08:46.697Z,3.00
2023-02-13T17:11:19.246Z,3.00
2023-02-13T17:13:49.526Z,3.90
2023-02-13T17:16:18.338Z,3.80
2023-02-13T17:18:46.811Z,4.40
2023-02-13T17:21:15.681Z,3.90
2023-02-13T17:23:44.114Z,4.60
2023-02-13T17:26:12.504Z,5.00
2023-02-13T17:28:43.787Z,4.80
2023-02-13T17:31:13.512Z,5.10
2023-02-13T17:33:42.669Z,4.40
2023-02-13T17:36:12.300Z,4.00
2023-02-13T17:38:40.788Z,3.60
2023-02-13T17:41:13.234Z,2.70
2023-02-13T17:43:41.729Z,4.30
2023-02-13T17:46:10.884Z,3.80
2023-02-13T17:48:39.367Z,3.70
2023-02-13T17:51:10.625Z,2.70
2023-02-13T17:53:39.325Z,5.70
2023-02-13T17:56:07.998Z,2.50
2023-02-13T17:58:36.905Z,4.70
2023-02-13T18:01:05.616Z,2.50
2023-02-13T18:03:34.001Z,3.00
2023-02-13T18:06:02.685Z,2.70
2023-02-13T18:08:31.404Z,3.40
2023-02-13T18:11:00.242Z,4.00
2023-02-13T18:13:28.904Z,4.20
2023-02-13T18:15:57.371Z,3.60
2023-02-13T18:18:26.462Z,4.90
2023-02-13T18:20:58.609Z,4.20
2023-02-13T18:23:27.806Z,4.40
2023-02-13T18:26:04.830Z,4.70
2023-02-13T18:28:33.578Z,4.70
2023-02-13T18:31:02.928Z,4.60
2023-02-13T18:33:31.835Z,4.80
2023-02-13T18:36:01.381Z,4.50
2023-02-13T18:38:30.198Z,4.50
2023-02-13T18:41:01.302Z,5.90
2023-02-13T18:43:29.943Z,4.20
2023-02-13T18:46:00.718Z,4.10
2023-02-13T18:48:30.287Z,4.80
2023-02-13T18:51:00.798Z,3.10
2023-02-13T18:53:30.315Z,4.70
2023-02-13T18:56:04.019Z,4.40
2023-02-13T18:58:33.111Z,3.70
2023-02-13T19:01:07.472Z,4.90
2023-02-13T19:03:37.641Z,4.50
2023-02-13T19:06:08.877Z,4.70
2023-02-13T19:08:37.575Z,4.10
2023-02-13T19:11:07.380Z,4.80
2023-02-13T19:13:35.968Z,5.20
2023-02-13T19:16:05.934Z,3.80
2023-02-13T19:18:39.153Z,3.60
2023-02-13T19:21:07.989Z,3.60
2023-02-13T19:23:37.510Z,4.40
2023-02-13T19:26:06.583Z,4.70
2023-02-13T19:28:35.166Z,4.30
2023-02-13T19:31:05.911Z,5.40
2023-02-13T19:33:36.922Z,4.80
2023-02-13T19:36:11.220Z,2.90
2023-02-13T19:38:42.451Z,4.40
2023-02-13T19:41:13.815Z,5.40
2023-02-13T19:43:49.590Z,5.50
2023-02-13T19:46:19.962Z,5.30
2023-02-13T19:48:48.517Z,5.30
2023-02-13T19:51:19.201Z,6.10
2023-02-13T19:53:49.885Z,6.70
2023-02-13T19:56:18.867Z,3.80
2023-02-13T19:58:47.695Z,4.30
2023-02-13T20:01:18.719Z,3.70
2023-02-13T20:03:48.593Z,4.90
2023-02-13T20:06:18.724Z,5.80
2023-02-13T20:08:47.874Z,5.40
2023-02-13T20:11:17.545Z,4.20
2023-02-13T20:13:46.058Z,3.90
2023-02-13T20:16:16.242Z,3.80
2023-02-13T20:18:44.942Z,4.30
2023-02-13T20:21:17.619Z,4.70
2023-02-13T20:23:51.005Z,3.70
2023-02-13T20:26:20.417Z,4.20
2023-02-13T20:28:49.409Z,4.60
2023-02-13T20:31:19.538Z,3.60
2023-02-13T20:33:49.920Z,5.30
2023-02-13T20:36:21.013Z,4.50
2023-02-13T20:38:52.256Z,3.50
2023-02-13T20:41:22.840Z,3.90
2023-02-13T20:43:53.299Z,3.90
2023-02-13T20:46:22.165Z,5.50
2023-02-13T20:48:50.975Z,4.10
2023-02-13T20:51:19.861Z,4.50
2023-02-13T20:53:48.562Z,3.10
2023-02-13T20:56:20.065Z,4.90
2023-02-13T20:58:50.437Z,3.20
2023-02-13T21:01:22.766Z,3.30
2023-02-13T21:03:55.083Z,4.60
2023-02-13T21:06:25.107Z,3.00
2023-02-13T21:08:53.644Z,4.40
2023-02-13T21:11:22.741Z,3.10
2023-02-13T21:13:51.315Z,3.00
2023-02-13T21:16:22.578Z,3.80
2023-02-13T21:18:53.249Z,3.70
2023-02-13T21:21:22.937Z,4.40
2023-02-13T21:23:54.739Z,3.90
2023-02-13T21:26:23.832Z,2.80
2023-02-13T21:28:53.309Z,5.50
2023-02-13T21:31:27.047Z,3.90
2023-02-13T21:33:58.799Z,3.70
2023-02-13T21:36:27.598Z,3.40
2023-02-13T21:38:56.330Z,3.10
2023-02-13T21:41:24.827Z,5.10
2023-02-13T21:43:53.535Z,3.90
2023-02-13T21:46:24.270Z,2.40
2023-02-13T21:48:54.228Z,2.50
2023-02-13T21:51:24.265Z,2.90
2023-02-13T21:53:53.787Z,2.90
2023-02-13T21:56:24.495Z,3.50
2023-02-13T21:58:53.532Z,4.40
2023-02-13T22:01:26.786Z,3.60
2023-02-13T22:03:59.959Z,3.00
2023-02-13T22:06:32.850Z,4.10
2023-02-13T22:09:05.946Z,9.70
2023-02-13T22:11:34.931Z,3.50
2023-02-13T22:14:05.354Z,4.80
2023-02-13T22:16:35.321Z,4.30
2023-02-13T22:19:04.756Z,8.10
2023-02-13T22:21:35.079Z,5.60
2023-02-13T22:24:04.482Z,2.50
2023-02-13T22:26:35.770Z,3.20
2023-02-13T22:29:05.601Z,4.00
2023-02-13T22:31:34.220Z,3.70
2023-02-13T22:34:05.329Z,3.50
2023-02-13T22:36:38.233Z,4.90
2023-02-13T22:39:08.994Z,3.70
2023-02-13T22:41:38.080Z,2.70
2023-02-13T22:44:06.548Z,5.00
2023-02-13T22:46:35.490Z,4.00
2023-02-13T22:49:04.349Z,5.50
2023-02-13T22:51:34.303Z,4.70
2023-02-13T22:54:03.379Z,4.20
2023-02-13T22:56:32.323Z,3.40
2023-02-13T22:59:01.241Z,4.30
2023-02-13T23:01:30.096Z,5.80
2023-02-13T23:03:58.604Z,4.10
2023-02-13T23:06:27.963Z,5.70
2023-02-13T23:08:57.377Z,3.20
2023-02-13T23:11:45.330Z,4.40
2023-02-13T23:14:14.380Z,3.10
2023-02-13T23:17:02.189Z,4.20
2023-02-13T23:19:30.844Z,4.70
2023-02-13T23:21:59.974Z,4.50
2023-02-13T23:24:29.353Z,3.40
2023-02-13T23:26:58.082Z,4.50
2023-02-13T23:29:27.188Z,5.40
2023-02-13T23:31:55.835Z,4.40
2023-02-13T23:34:24.519Z,4.50
2023-02-13T23:36:53.101Z,3.40
2023-02-13T23:39:23.570Z,3.50
2023-02-13T23:41:52.272Z,4.90
2023-02-13T23:44:20.865Z,4.40
2023-02-13T23:46:49.464Z,3.50
2023-02-13T23:49:18.212Z,3.70
2023-02-13T23:51:46.650Z,3.30
2023-02-13T23:54:18.810Z,4.20
2023-02-13T23:56:48.530Z,5.10
2023-02-13T23:59:17.773Z,4.40
